createdAt,value
2018-11-04T00:00:19.655Z,102437.33
2018-11-04T00:02:48.576Z,102441.97
2018-11-04T00:05:16.979Z,102433.72
2018-11-04T00:07:45.846Z,102424.70
2018-11-04T00:10:13.882Z,102420.30
2018-11-04T00:12:42.085Z,102422.50
2018-11-04T00:15:13.254Z,102417.61
2018-11-04T00:17:44.689Z,102408.88
2018-11-04T00:22:51.399Z,102411.12
2018-11-04T00:25:19.883Z,102411.12
2018-11-04T00:27:48.142Z,102402.96
2018-11-04T00:30:16.458Z,102398.29
2018-11-04T00:32:44.869Z,102397.80
2018-11-04T00:35:12.993Z,102395.38
2018-11-04T00:37:41.096Z,102389.06
2018-11-04T00:40:09.255Z,102385.27
2018-11-04T00:42:37.837Z,102382.79
2018-11-04T00:45:07.553Z,102387.69
2018-11-04T00:47:35.665Z,102388.14
2018-11-04T00:50:03.801Z,102376.84
2018-11-04T00:52:32.296Z,102371.02
2018-11-04T00:55:00.367Z,102370.12
2018-11-04T00:57:28.516Z,102365.97
2018-11-04T00:59:56.576Z,102363.23
2018-11-04T01:02:24.649Z,102361.77
2018-11-04T01:04:52.710Z,102360.66
2018-11-04T01:07:20.761Z,102360.09
2018-11-04T01:09:48.815Z,102359.73
2018-11-04T01:12:16.877Z,102360.22
2018-11-04T01:14:44.949Z,102357.20
2018-11-04T01:17:13.032Z,102347.64
2018-11-04T01:19:41.135Z,102342.44
2018-11-04T01:22:09.175Z,102339.97
2018-11-04T01:24:37.365Z,102338.55
2018-11-04T01:27:05.664Z,102328.98
2018-11-04T01:29:33.712Z,102335.02
2018-11-04T01:32:01.783Z,102323.50
2018-11-04T01:34:29.852Z,102324.30
2018-11-04T01:36:57.932Z,102313.89
2018-11-04T01:39:26.004Z,102309.48
2018-11-04T01:41:54.085Z,102308.64
2018-11-04T01:44:22.148Z,102300.39
2018-11-04T01:46:50.215Z,102294.08
2018-11-04T01:49:18.285Z,102294.83
2018-11-04T01:51:46.333Z,102282.48
2018-11-04T01:54:14.409Z,102281.64
2018-11-04T01:56:42.465Z,102283.02
2018-11-04T01:59:10.541Z,102272.64
2018-11-04T02:01:38.614Z,102274.02
2018-11-04T02:04:06.855Z,102261.72
2018-11-04T02:06:34.925Z,102257.63
2018-11-04T02:09:03.017Z,102258.41
2018-11-04T02:11:31.101Z,102249.94
2018-11-04T02:13:59.184Z,102252.95
2018-11-04T02:16:27.229Z,102245.58
2018-11-04T02:18:55.295Z,102249.68
2018-11-04T02:21:23.350Z,102242.31
2018-11-04T02:23:51.412Z,102240.73
2018-11-04T02:26:19.520Z,102230.95
2018-11-04T02:28:47.601Z,102233.50
2018-11-04T02:31:15.656Z,102220.94
2018-11-04T02:33:43.855Z,102216.83
2018-11-04T02:36:12.080Z,102212.43
2018-11-04T02:38:40.177Z,102215.73
2018-11-04T02:41:08.468Z,102212.66
2018-11-04T02:43:36.584Z,102205.25
2018-11-04T02:46:05.454Z,102209.87
2018-11-04T02:48:33.582Z,102203.00
2018-11-04T02:51:01.645Z,102199.69
2018-11-04T02:53:29.712Z,102198.33
2018-11-04T02:55:58.048Z,102202.42
2018-11-04T02:58:26.146Z,102195.06
2018-11-04T03:00:54.197Z,102198.59
2018-11-04T03:03:22.265Z,102193.66
2018-11-04T03:05:50.316Z,102189.28
2018-11-04T03:08:18.380Z,102188.72
2018-11-04T03:10:46.445Z,102188.72
2018-11-04T03:13:14.516Z,102189.28
2018-11-04T03:15:42.618Z,102185.19
2018-11-04T03:18:10.641Z,102184.92
2018-11-04T03:20:38.754Z,102176.45
2018-11-04T03:23:07.195Z,102170.99
2018-11-04T03:25:35.262Z,102180.30
2018-11-04T03:28:03.435Z,102169.92
2018-11-04T03:30:31.672Z,102172.09
2018-11-04T03:32:59.741Z,102164.99
2018-11-04T03:35:27.812Z,102163.36
2018-11-04T03:37:55.908Z,102160.14
2018-11-04T03:40:23.977Z,102150.05
2018-11-04T03:42:52.059Z,102158.81
2018-11-04T03:45:20.104Z,102155.59
2018-11-04T03:47:48.218Z,102143.28
2018-11-04T03:50:16.276Z,102141.92
2018-11-04T03:52:44.343Z,102140.33
2018-11-04T03:55:12.422Z,102141.20
2018-11-04T03:57:40.749Z,102143.41
2018-11-04T04:00:11.082Z,102130.30
2018-11-04T04:02:39.410Z,102131.17
2018-11-04T04:05:08.375Z,102129.50
2018-11-04T04:07:36.443Z,102124.34
2018-11-04T04:10:05.328Z,102121.63
2018-11-04T04:12:33.382Z,102120.00
2018-11-04T04:15:01.430Z,102112.37
2018-11-04T04:17:29.480Z,102114.56
2018-11-04T04:19:57.599Z,102112.70
2018-11-04T04:22:25.677Z,102108.59
2018-11-04T04:24:53.750Z,102110.00
2018-11-04T04:27:21.844Z,102104.83
2018-11-04T04:29:49.921Z,102102.92
2018-11-04T04:32:17.977Z,102102.95
2018-11-04T04:34:46.061Z,102102.98
2018-11-04T04:37:14.120Z,102101.35
2018-11-04T04:39:42.180Z,102102.45
2018-11-04T04:42:10.258Z,102098.61
2018-11-04T04:44:38.304Z,102101.35
2018-11-04T04:47:06.384Z,102097.52
2018-11-04T04:49:34.444Z,102100.52
2018-11-04T04:52:02.631Z,102089.81
2018-11-04T04:54:31.083Z,102083.77
2018-11-04T04:56:59.460Z,102086.81
2018-11-04T04:59:27.564Z,102084.11
2018-11-04T05:01:55.775Z,102073.73
2018-11-04T05:04:24.264Z,102076.73
2018-11-04T05:06:52.353Z,102077.56
2018-11-04T05:09:20.458Z,102075.66
2018-11-04T05:11:48.544Z,102071.55
2018-11-04T05:14:16.615Z,102066.09
2018-11-04T05:16:44.717Z,102064.16
2018-11-04T05:19:12.805Z,102059.19
2018-11-04T05:21:40.876Z,102060.83
2018-11-04T05:24:08.962Z,102058.36
2018-11-04T05:26:37.020Z,102065.43
2018-11-04T05:29:05.086Z,102064.86
2018-11-04T05:31:33.164Z,102065.40
2018-11-04T05:34:01.236Z,102064.00
2018-11-04T05:36:29.308Z,102063.70
2018-11-04T05:38:57.368Z,102065.30
2018-11-04T05:41:25.449Z,102058.97
2018-11-04T05:43:53.523Z,102064.34
2018-11-04T05:46:21.594Z,102053.08
2018-11-04T05:48:49.670Z,102048.94
2018-11-04T05:51:17.740Z,102051.11
2018-11-04T05:53:45.796Z,102055.70
2018-11-04T05:56:13.860Z,102049.70
2018-11-04T05:58:41.928Z,102049.67
2018-11-04T06:01:10.041Z,102044.20
2018-11-04T06:03:38.108Z,102046.33
2018-11-04T06:06:06.184Z,102053.66
2018-11-04T06:08:34.289Z,102048.99
2018-11-04T06:11:02.376Z,102043.53
2018-11-04T06:13:30.445Z,102039.43
2018-11-04T06:15:58.532Z,102042.73
2018-11-04T06:18:26.616Z,102052.33
2018-11-04T06:20:54.697Z,102049.06
2018-11-04T06:23:22.768Z,102057.27
2018-11-04T06:25:50.808Z,102062.20
2018-11-04T06:28:18.880Z,102062.47
2018-11-04T06:30:46.949Z,102067.66
2018-11-04T06:33:15.032Z,102064.70
2018-11-04T06:35:43.118Z,102065.80
2018-11-04T06:38:11.202Z,102070.73
2018-11-04T06:40:39.272Z,102066.97
2018-11-04T06:43:07.360Z,102067.27
2018-11-04T06:45:35.448Z,102061.58
2018-11-04T06:48:03.549Z,102060.55
2018-11-04T06:50:31.613Z,102063.64
2018-11-04T06:52:59.978Z,102060.14
2018-11-04T06:55:28.056Z,102052.29
2018-11-04T06:57:56.150Z,102052.38
2018-11-04T07:00:24.272Z,102052.45
2018-11-04T07:02:52.631Z,102052.27
2018-11-04T07:05:20.725Z,102050.14
2018-11-04T07:07:49.206Z,102043.39
2018-11-04T07:10:17.311Z,102043.19
2018-11-04T07:12:45.390Z,102047.06
2018-11-04T07:15:13.472Z,102046.02
2018-11-04T07:17:41.511Z,102041.41
2018-11-04T07:20:09.833Z,102043.93
2018-11-04T07:22:38.292Z,102042.61
2018-11-04T07:25:06.640Z,102039.13
2018-11-04T07:27:34.708Z,102040.53
2018-11-04T07:30:02.771Z,102032.89
2018-11-04T07:32:30.844Z,102023.86
2018-11-04T07:34:58.912Z,102025.77
2018-11-04T07:37:27.018Z,102025.81
2018-11-04T07:39:55.092Z,102023.61
2018-11-04T07:42:23.144Z,102020.07
2018-11-04T07:44:51.208Z,102017.61
2018-11-04T07:47:19.279Z,102021.44
2018-11-04T07:49:47.332Z,102021.98
2018-11-04T07:52:15.400Z,102018.69
2018-11-04T07:54:43.542Z,102021.45
2018-11-04T07:57:11.541Z,102013.73
2018-11-04T07:59:39.621Z,102017.87
2018-11-04T08:02:07.667Z,102017.56
2018-11-04T08:04:35.752Z,102007.67
2018-11-04T08:07:03.900Z,102000.81
2018-11-04T08:09:31.990Z,101997.48
2018-11-04T08:12:00.128Z,101992.52
2018-11-04T08:14:28.200Z,101992.77
2018-11-04T08:16:56.255Z,101996.05
2018-11-04T08:19:24.312Z,101996.31
2018-11-04T08:21:52.380Z,101999.60
2018-11-04T08:24:20.455Z,101992.44
2018-11-04T08:26:48.522Z,101992.44
2018-11-04T08:29:16.576Z,101989.66
2018-11-04T08:31:44.628Z,101973.69
2018-11-04T08:34:12.696Z,101970.65
2018-11-04T08:36:40.995Z,101968.98
2018-11-04T08:39:09.689Z,101969.22
2018-11-04T08:41:37.955Z,101975.80
2018-11-04T08:44:06.024Z,101971.12
2018-11-04T08:46:34.105Z,101974.66
2018-11-04T08:49:02.229Z,101970.52
2018-11-04T08:51:30.308Z,101968.86
2018-11-04T08:53:58.376Z,101962.77
2018-11-04T08:56:26.452Z,101958.92
2018-11-04T08:58:54.577Z,101963.29
2018-11-04T09:01:22.649Z,101962.44
2018-11-04T09:03:50.716Z,101963.78
2018-11-04T09:06:18.783Z,101962.67
2018-11-04T09:08:46.872Z,101959.33
2018-11-04T09:11:14.944Z,101951.33
2018-11-04T09:13:43.020Z,101948.27
2018-11-04T09:16:11.069Z,101947.97
2018-11-04T09:18:39.116Z,101941.32
2018-11-04T09:21:07.388Z,101942.67
2018-11-04T09:23:35.525Z,101943.75
2018-11-04T09:26:03.592Z,101942.59
2018-11-04T09:28:31.703Z,101943.38
2018-11-04T09:30:59.766Z,101937.56
2018-11-04T09:33:27.892Z,101937.83
2018-11-04T09:35:56.384Z,101936.39
2018-11-04T09:38:24.181Z,101936.92
2018-11-04T09:40:52.248Z,101934.39
2018-11-04T09:43:20.320Z,101931.33
2018-11-04T09:45:48.382Z,101931.31
2018-11-04T09:48:16.488Z,101922.18
2018-11-04T09:50:44.580Z,101919.66
2018-11-04T09:53:12.652Z,101919.34
2018-11-04T09:55:41.299Z,101920.94
2018-11-04T09:58:09.428Z,101913.20
2018-11-04T10:00:37.560Z,101915.11
2018-11-04T10:03:05.636Z,101918.13
2018-11-04T10:05:33.768Z,101912.30
2018-11-04T10:08:01.884Z,101912.83
2018-11-04T10:10:29.963Z,101904.01
2018-11-04T10:12:58.053Z,101903.41
2018-11-04T10:15:26.230Z,101900.02
2018-11-04T10:17:54.322Z,101898.31
2018-11-04T10:20:22.699Z,101910.39
2018-11-04T10:22:50.537Z,101903.23
2018-11-04T10:25:18.641Z,101901.03
2018-11-04T10:27:46.754Z,101904.86
2018-11-04T10:30:16.301Z,101896.56
2018-11-04T10:32:44.356Z,101882.17
2018-11-04T10:35:12.453Z,101890.70
2018-11-04T10:37:41.341Z,101883.48
2018-11-04T10:40:10.444Z,101880.09
2018-11-04T10:42:38.529Z,101884.66
2018-11-04T10:45:07.868Z,101879.06
2018-11-04T10:47:35.935Z,101881.73
2018-11-04T10:50:04.225Z,101878.91
2018-11-04T10:52:32.197Z,101876.09
2018-11-04T10:55:00.457Z,101869.69
2018-11-04T10:57:29.021Z,101871.00
2018-11-04T10:59:57.186Z,101867.08
2018-11-04T11:02:25.254Z,101868.36
2018-11-04T11:04:53.526Z,101862.47
2018-11-04T11:07:22.165Z,101855.50
2018-11-04T11:09:50.516Z,101851.84
2018-11-04T11:12:18.924Z,101857.09
2018-11-04T11:14:47.020Z,101850.13
2018-11-04T11:17:15.112Z,101851.68
2018-11-04T11:19:43.339Z,101841.98
2018-11-04T11:22:11.420Z,101835.56
2018-11-04T11:24:39.546Z,101834.11
2018-11-04T11:27:07.952Z,101820.50
2018-11-04T11:29:36.302Z,101823.43
2018-11-04T11:32:06.394Z,101821.14
2018-11-04T11:34:34.776Z,101823.83
2018-11-04T11:37:02.861Z,101816.37
2018-11-04T11:39:31.436Z,101808.25
2018-11-04T11:41:59.914Z,101808.92
2018-11-04T11:44:28.090Z,101811.59
2018-11-04T11:46:56.293Z,101805.48
2018-11-04T11:49:24.361Z,101802.17
2018-11-04T11:51:52.453Z,101806.83
2018-11-04T11:54:20.772Z,101801.50
2018-11-04T11:56:48.863Z,101795.84
2018-11-04T11:59:17.401Z,101790.75
2018-11-04T12:01:46.908Z,101790.85
2018-11-04T12:04:16.574Z,101789.98
2018-11-04T12:06:46.162Z,101789.89
2018-11-04T12:09:16.980Z,101789.52
2018-11-04T12:11:46.769Z,101779.91
2018-11-04T12:14:20.099Z,101775.11
2018-11-04T12:16:49.925Z,101770.27
2018-11-04T12:19:19.000Z,101767.59
2018-11-04T12:21:49.622Z,101774.32
2018-11-04T12:24:17.717Z,101764.83
2018-11-04T12:26:50.681Z,101766.98
2018-11-04T12:29:27.873Z,101754.27
2018-11-04T12:31:56.024Z,101757.36
2018-11-04T12:34:24.134Z,101746.34
2018-11-04T12:36:52.230Z,101751.31
2018-11-04T12:39:20.337Z,101745.78
2018-11-04T12:41:48.400Z,101733.47
2018-11-04T12:44:16.510Z,101737.42
2018-11-04T12:46:44.661Z,101734.92
2018-11-04T12:49:13.305Z,101723.53
2018-11-04T12:51:41.484Z,101725.98
2018-11-04T12:54:09.564Z,101729.25
2018-11-04T12:56:37.652Z,101726.20
2018-11-04T12:59:05.903Z,101722.34
2018-11-04T13:01:34.102Z,101719.06
2018-11-04T13:04:02.544Z,101721.33
2018-11-04T13:06:30.629Z,101715.51
2018-11-04T13:08:58.713Z,101720.95
2018-11-04T13:11:26.964Z,101709.38
2018-11-04T13:13:54.992Z,101705.00
2018-11-04T13:16:23.099Z,101708.27
2018-11-04T13:18:51.205Z,101704.89
2018-11-04T13:21:19.404Z,101704.89
2018-11-04T13:23:47.477Z,101705.45
2018-11-04T13:26:15.580Z,101697.44
2018-11-04T13:28:43.781Z,101700.30
2018-11-04T13:31:11.849Z,101708.64
2018-11-04T13:33:39.930Z,101701.23
2018-11-04T13:36:08.349Z,101693.43
2018-11-04T13:38:36.423Z,101687.58
2018-11-04T13:41:04.588Z,101689.23
2018-11-04T13:43:32.667Z,101686.70
2018-11-04T13:46:00.724Z,101685.41
2018-11-04T13:48:28.792Z,101674.81
2018-11-04T13:50:56.920Z,101685.36
2018-11-04T13:53:25.000Z,101675.69
2018-11-04T13:55:53.063Z,101684.75
2018-11-04T13:58:21.209Z,101683.22
2018-11-04T14:00:49.272Z,101692.43
2018-11-04T14:03:17.386Z,101688.22
2018-11-04T14:05:45.432Z,101691.98
2018-11-04T14:08:13.492Z,101681.09
2018-11-04T14:10:41.620Z,101694.69
2018-11-04T14:13:09.749Z,101693.84
2018-11-04T14:15:37.864Z,101692.08
2018-11-04T14:18:05.992Z,101688.63
2018-11-04T14:20:34.105Z,101690.31
2018-11-04T14:23:02.202Z,101685.66
2018-11-04T14:25:30.293Z,101683.17
2018-11-04T14:27:58.400Z,101685.84
2018-11-04T14:30:26.468Z,101675.72
2018-11-04T14:32:54.583Z,101674.95
2018-11-04T14:35:22.695Z,101670.80
2018-11-04T14:37:50.795Z,101672.58
2018-11-04T14:40:18.897Z,101673.17
2018-11-04T14:42:46.984Z,101665.81
2018-11-04T14:45:15.090Z,101667.59
2018-11-04T14:47:43.148Z,101662.61
2018-11-04T14:50:13.736Z,101664.82
2018-11-04T14:52:41.835Z,101664.27
2018-11-04T14:55:09.916Z,101660.34
2018-11-04T14:57:38.160Z,101655.13
2018-11-04T15:00:08.784Z,101657.91
2018-11-04T15:02:36.923Z,101646.06
2018-11-04T15:05:05.842Z,101653.87
2018-11-04T15:07:34.014Z,101659.18
2018-11-04T15:10:02.000Z,101650.61
2018-11-04T15:12:30.143Z,101648.50
2018-11-04T15:14:58.224Z,101650.50
2018-11-04T15:17:26.289Z,101646.44
2018-11-04T15:19:54.599Z,101642.59
2018-11-04T15:22:22.728Z,101646.50
2018-11-04T15:24:50.886Z,101639.15
2018-11-04T15:27:19.056Z,101638.59
2018-11-04T15:29:47.169Z,101633.67
2018-11-04T15:32:15.433Z,101629.79
2018-11-04T15:34:43.822Z,101622.11
2018-11-04T15:37:11.678Z,101619.44
2018-11-04T15:39:39.788Z,101627.14
2018-11-04T15:42:07.878Z,101623.58
2018-11-04T15:44:36.017Z,101626.91
2018-11-04T15:47:04.104Z,101623.87
2018-11-04T15:49:32.208Z,101615.58
2018-11-04T15:52:00.288Z,101621.38
2018-11-04T15:54:28.377Z,101623.32
2018-11-04T15:57:00.709Z,101624.14
2018-11-04T15:59:28.782Z,101627.14
2018-11-04T16:01:56.856Z,101628.30
2018-11-04T16:04:24.985Z,101624.14
2018-11-04T16:06:53.096Z,101618.11
2018-11-04T16:09:21.294Z,101628.91
2018-11-04T16:11:49.415Z,101624.77
2018-11-04T16:14:17.516Z,101623.65
2018-11-04T16:16:45.614Z,101622.82
2018-11-04T16:19:13.753Z,101625.36
2018-11-04T16:21:41.885Z,101624.59
2018-11-04T16:24:09.961Z,101626.53
2018-11-04T16:26:38.072Z,101622.16
2018-11-04T16:29:06.184Z,101622.70
2018-11-04T16:31:34.313Z,101621.13
2018-11-04T16:34:02.438Z,101618.09
2018-11-04T16:36:30.530Z,101618.68
2018-11-04T16:38:58.634Z,101614.33
2018-11-04T16:41:26.732Z,101617.98
2018-11-04T16:43:54.950Z,101620.24
2018-11-04T16:46:22.976Z,101618.92
2018-11-04T16:48:51.100Z,101619.80
2018-11-04T16:51:19.225Z,101627.30
2018-11-04T16:53:47.356Z,101618.19
2018-11-04T16:56:15.599Z,101622.06
2018-11-04T16:58:43.576Z,101621.27
2018-11-04T17:01:11.677Z,101621.27
2018-11-04T17:03:39.772Z,101619.89
2018-11-04T17:06:07.880Z,101625.98
2018-11-04T17:08:35.960Z,101626.87
2018-11-04T17:11:04.042Z,101628.30
2018-11-04T17:13:32.145Z,101629.13
2018-11-04T17:16:00.276Z,101621.06
2018-11-04T17:18:28.445Z,101619.45
2018-11-04T17:20:56.574Z,101621.72
2018-11-04T17:23:24.671Z,101621.16
2018-11-04T17:25:52.816Z,101619.69
2018-11-04T17:28:20.985Z,101623.77
2018-11-04T17:30:49.134Z,101626.80
2018-11-04T17:33:17.296Z,101630.07
2018-11-04T17:35:45.413Z,101622.89
2018-11-04T17:38:13.435Z,101617.92
2018-11-04T17:40:41.588Z,101623.39
2018-11-04T17:43:09.665Z,101613.39
2018-11-04T17:45:37.775Z,101610.06
2018-11-04T17:48:05.846Z,101614.48
2018-11-04T17:50:33.917Z,101604.03
2018-11-04T17:53:01.975Z,101604.09
2018-11-04T17:55:30.067Z,101599.05
2018-11-04T17:57:58.134Z,101600.77
2018-11-04T18:00:26.205Z,101603.41
2018-11-04T18:02:54.267Z,101603.97
2018-11-04T18:05:22.328Z,101602.65
2018-11-04T18:07:50.428Z,101611.00
2018-11-04T18:10:18.533Z,101604.52
2018-11-04T18:12:46.600Z,101603.64
2018-11-04T18:15:15.118Z,101603.17
2018-11-04T18:17:43.184Z,101601.75
2018-11-04T18:20:11.888Z,101604.05
2018-11-04T18:22:39.968Z,101606.33
2018-11-04T18:25:08.860Z,101608.50
2018-11-04T18:27:36.974Z,101609.13
2018-11-04T18:30:06.506Z,101614.89
2018-11-04T18:32:34.593Z,101614.02
2018-11-04T18:35:02.691Z,101606.94
2018-11-04T18:37:30.756Z,101605.05
2018-11-04T18:39:59.273Z,101599.84
2018-11-04T18:42:27.392Z,101593.66
2018-11-04T18:44:55.482Z,101599.45
2018-11-04T18:47:23.536Z,101608.15
2018-11-04T18:49:51.619Z,101604.55
2018-11-04T18:52:19.774Z,101606.44
2018-11-04T18:54:47.820Z,101600.91
2018-11-04T18:57:15.901Z,101606.50
2018-11-04T18:59:43.961Z,101605.51
2018-11-04T19:02:12.050Z,101605.77
2018-11-04T19:04:40.116Z,101599.35
2018-11-04T19:07:08.489Z,101607.27
2018-11-04T19:09:36.556Z,101593.98
2018-11-04T19:12:04.945Z,101609.59
2018-11-04T19:14:33.005Z,101600.86
2018-11-04T19:17:01.109Z,101589.30
2018-11-04T19:19:29.277Z,101600.63
2018-11-04T19:21:57.345Z,101600.86
2018-11-04T19:24:25.412Z,101597.20
2018-11-04T19:26:53.494Z,101601.45
2018-11-04T19:29:21.577Z,101596.48
2018-11-04T19:31:50.077Z,101606.39
2018-11-04T19:34:18.391Z,101602.07
2018-11-04T19:36:46.488Z,101599.37
2018-11-04T19:39:14.607Z,101596.53
2018-11-04T19:41:43.076Z,101582.97
2018-11-04T19:44:11.162Z,101586.23
2018-11-04T19:46:39.340Z,101577.84
2018-11-04T19:49:07.488Z,101584.69
2018-11-04T19:51:35.621Z,101584.45
2018-11-04T19:54:03.769Z,101584.52
2018-11-04T19:56:31.926Z,101588.41
2018-11-04T19:59:00.056Z,101585.41
2018-11-04T20:01:28.080Z,101583.03
2018-11-04T20:03:56.152Z,101576.94
2018-11-04T20:06:24.268Z,101567.98
2018-11-04T20:08:57.736Z,101567.16
2018-11-04T20:11:26.143Z,101562.94
2018-11-04T20:13:59.591Z,101559.68
2018-11-04T20:16:28.041Z,101560.56
2018-11-04T20:19:01.574Z,101561.22
2018-11-04T20:21:29.656Z,101570.08
2018-11-04T20:23:57.736Z,101572.84
2018-11-04T20:26:25.851Z,101569.20
2018-11-04T20:28:53.935Z,101566.66
2018-11-04T20:31:27.524Z,101575.23
2018-11-04T20:33:55.670Z,101566.59
2018-11-04T20:36:23.665Z,101567.55
2018-11-04T20:38:57.200Z,101567.94
2018-11-04T20:41:29.213Z,101565.99
2018-11-04T20:43:57.316Z,101568.94
2018-11-04T20:46:25.396Z,101565.28
2018-11-04T20:48:58.921Z,101564.39
2018-11-04T20:51:27.061Z,101555.30
2018-11-04T20:53:55.089Z,101549.77
2018-11-04T20:56:28.733Z,101554.30
2018-11-04T20:58:56.787Z,101552.09
2018-11-04T21:01:24.960Z,101550.65
2018-11-04T21:03:53.215Z,101541.95
2018-11-04T21:06:21.207Z,101543.02
2018-11-04T21:08:49.334Z,101535.77
2018-11-04T21:11:17.443Z,101534.87
2018-11-04T21:13:45.534Z,101534.38
2018-11-04T21:16:13.800Z,101535.70
2018-11-04T21:18:41.760Z,101527.34
2018-11-04T21:21:09.908Z,101533.56
2018-11-04T21:23:38.096Z,101532.84
2018-11-04T21:26:06.271Z,101523.31
2018-11-04T21:28:34.683Z,101522.92
2018-11-04T21:31:02.659Z,101514.63
2018-11-04T21:33:30.905Z,101516.27
2018-11-04T21:35:59.125Z,101513.17
2018-11-04T21:38:27.393Z,101508.03
2018-11-04T21:40:55.610Z,101505.66
2018-11-04T21:43:24.043Z,101501.91
2018-11-04T21:45:52.033Z,101500.26
2018-11-04T21:48:20.236Z,101499.37
2018-11-04T21:50:48.767Z,101504.11
2018-11-04T21:53:17.082Z,101499.07
2018-11-04T21:55:45.370Z,101496.20
2018-11-04T21:58:14.781Z,101498.97
2018-11-04T22:00:42.960Z,101487.34
2018-11-04T22:03:11.490Z,101488.56
2018-11-04T22:05:39.367Z,101479.60
2018-11-04T22:08:07.488Z,101473.58
2018-11-04T22:10:35.664Z,101472.52
2018-11-04T22:13:03.808Z,101475.45
2018-11-04T22:15:32.088Z,101474.86
2018-11-04T22:18:00.951Z,101470.41
2018-11-04T22:20:29.040Z,101463.73
2018-11-04T22:22:57.103Z,101468.14
2018-11-04T22:25:25.177Z,101467.55
2018-11-04T22:27:53.408Z,101460.89
2018-11-04T22:30:21.562Z,101461.62
2018-11-04T22:32:49.634Z,101465.05
2018-11-04T22:35:17.851Z,101468.30
2018-11-04T22:37:45.924Z,101462.84
2018-11-04T22:40:14.408Z,101464.28
2018-11-04T22:42:42.899Z,101461.78
2018-11-04T22:45:12.038Z,101454.30
2018-11-04T22:47:40.709Z,101455.09
2018-11-04T22:50:10.714Z,101457.14
2018-11-04T22:52:39.173Z,101451.34
2018-11-04T22:55:07.301Z,101453.32
2018-11-04T22:57:35.416Z,101456.45
2018-11-04T23:00:03.620Z,101447.66
2018-11-04T23:02:31.693Z,101449.11
2018-11-04T23:05:05.106Z,101448.78
2018-11-04T23:07:41.936Z,101453.69
2018-11-04T23:10:10.008Z,101450.86
2018-11-04T23:12:38.076Z,101445.65
2018-11-04T23:15:06.404Z,101443.25
2018-11-04T23:17:34.565Z,101437.72
2018-11-04T23:20:02.806Z,101448.78
2018-11-04T23:22:30.885Z,101450.98
2018-11-04T23:24:58.944Z,101442.69
2018-11-04T23:27:27.041Z,101440.68
2018-11-04T23:29:55.120Z,101438.47
2018-11-04T23:32:23.176Z,101438.77
2018-11-04T23:34:51.248Z,101430.70
2018-11-04T23:37:19.316Z,101429.91
2018-11-04T23:39:47.388Z,101430.11
2018-11-04T23:42:15.452Z,101424.27
2018-11-04T23:44:43.569Z,101429.05
2018-11-04T23:47:11.628Z,101421.05
2018-11-04T23:49:39.785Z,101426.55
2018-11-04T23:52:07.831Z,101418.81
2018-11-04T23:54:35.904Z,101423.52
2018-11-04T23:57:03.980Z,101419.37
2018-11-04T23:59:32.048Z,101421.61
